Terminal Aerodrome Forecast
Issued by NWS Spokane, WA

Home | Current Version | Previous Version | Text Only | Print | Product List | Glossary On
Versions: 1 2 3 4 5 6 7 8 9 10 11 12 13 14 15 16 17 18 19 20 21 22 23 24 25 26 27
000
FTUS46 KOTX 210543 CCA
TAFEAT
TAF COR
KEAT 210543Z 2106/2206 35005KT P6SM FEW001
     FM210800 33004KT P6SM BCFG SCT001 BKN150
     FM211200 30005KT P6SM BKN008 OVC100
     FM211600 29004KT P6SM VCSH SCT008 OVC050
      TEMPO 2116/2119 6SM -SN OVC025
     FM211900 30004KT P6SM BKN025 OVC040
     FM220300 30012KT P6SM SCT150=

USA.gov is the U.S. government's official web portal to all federal, state and local government web resources and services.